Omer, MI (48749)

11:13 PM EDT on October 21, 2014 (GMT -0400)
Pinconning farm country, (Pintucky Hawg Farm) | Change Station
CLOSE
Current Station
Personal Weather Station
Location: Pinconning, MI
Elevation: 623 ft
Nearby Weather Stations

Elev 623 ft 43.82 °N, 84.03 °W | Updated 1 minute ago

Partly Cloudy
Partly Cloudy
37.2 °F
Feels Like 34 °F
N
3.8
Wind Variable Wind from NNW

Today
High -- | Low -- °F
--% Chance of Precip.
Yesterday
High -- | Low -- °F
Precip. -- in
7:57 AM 6:41 PM
Waning Crescent, 3% visible
Pressure 30.27 in
Visibility 10.0 miles
Clouds Clear
Windchill 34 °F
Dew Point 33 °F
Humidity 84%
Rainfall 0.00 in
Snow Depth Not available.
UV 0 out of 12
Pollen 1.40 out of 12
PM2.5 Good
Flu Activity Sporadic
METAR KIKW 220252Z AUTO 36003KT 10SM CLR 03/00 A3027 RMK AO2 T00331004

More Conditions Fewer Conditions

Pressure 30.27 in
Visibility 10.0 miles
Clouds Clear
Windchill 34 °F
Dew Point 33 °F
Humidity 84%
Rainfall 0.00 in
Snow Depth Not available.
UV 0 out of 12
Pollen 1.40 out of 12
PM2.5 Good
Flu Activity Sporadic
METAR KIKW 220252Z AUTO 36003KT 10SM CLR 03/00 A3027 RMK AO2 T00331004

More Conditions Fewer Conditions

Nowcast | as of 11:00 PM EDT on October 21, 2014

At 12 am...partly cloudy. Temperature 38. Light winds. At 2 am...mostly cloudy. Temperature 38. North winds 5 mph. At 4 am...mostly cloudy. Temperature 38. North winds 5 mph. At 6 am...mostly cloudy. Temperature 36. Light winds.

×

10-Day Weather Forecast

Almanac

Astronomy

Oct. 21, 2014 Rise Set
Actual Time 7:57 AM EDT 6:41 PM EDT
Civil Twilight 7:28 AM EDT 7:11 PM EDT
Nautical Twilight 6:54 AM EDT 7:44 PM EDT
Astronomical Twilight 6:21 AM EDT 8:18 PM EDT
Moon 5:36 AM EDT (10/21) 5:39 PM EDT (10/21)
Length of Visible Light 11h 42m
Length of Day
10h 44m
Tomorrow will be 2m 52s shorter.
Waning Crescent, 3% of the Moon is Illuminated
Today
Waning Crescent
Oct 23
New
Oct 30
First Quarter
Nov 6
Full
Nov 14
Last Quarter

Today's Extremes

State Highs State Lows

Community

WunderPhotos

Upload Photos

1,763,869 photos uploaded!

Nearby

Air Quality

  Air Quality AQ Index Pollutant
Yesterday Good
PM2.5
Current Good
PM2.5
Tuesday Good
PM2.5
Wednesday Good
PM2.5
Thursday Good
PM2.5
Friday Good
PM2.5
Saturday Good
PM2.5

Snow Depth

Station Depth Elevation
No new snow has been reported.

Earthquake Activity

City Distance Mag. Time & Date
No recent earthquake activity has been reported nearby.
Minimum magnitude displayed is 2.5.

Coastal Water Temperatures

Place Temperature
Harbor Beach, MI 48.0 °F

Nearby Weather Stations